createdAt,value
2023-04-15T00:07:11.037Z,99734.13
2023-04-15T00:17:32.292Z,99734.00
2023-04-15T00:27:53.956Z,99746.69
2023-04-15T00:38:15.384Z,99733.41
2023-04-15T00:48:38.841Z,99738.47
2023-04-15T00:59:01.104Z,99745.28
2023-04-15T01:09:23.109Z,99730.13
2023-04-15T01:19:45.786Z,99740.09
2023-04-15T01:30:08.886Z,99749.44
2023-04-15T01:40:30.950Z,99765.44
2023-04-15T01:50:54.830Z,99769.75
2023-04-15T02:01:17.014Z,99764.19
2023-04-15T02:11:39.311Z,99790.53
2023-04-15T02:22:01.684Z,99808.53
2023-04-15T02:32:24.482Z,99787.97
2023-04-15T02:42:46.558Z,99805.75
2023-04-15T02:53:10.636Z,99825.41
2023-04-15T03:03:32.649Z,99822.22
2023-04-15T03:13:54.724Z,99814.78
2023-04-15T03:24:24.955Z,99809.78
2023-04-15T03:34:46.862Z,99817.22
2023-04-15T03:45:09.470Z,99817.22
2023-04-15T03:55:30.976Z,99821.22
2023-04-15T04:05:52.554Z,99819.34
2023-04-15T04:16:14.484Z,99833.59
2023-04-15T04:26:36.458Z,99833.69
2023-04-15T04:36:58.056Z,99829.53
2023-04-15T04:47:19.694Z,99833.53
2023-04-15T04:57:41.432Z,99846.53
2023-04-15T05:08:03.358Z,99837.63
2023-04-15T05:18:24.857Z,99841.91
2023-04-15T05:28:46.344Z,99850.88
2023-04-15T05:39:07.910Z,99860.41
2023-04-15T05:49:29.751Z,99868.44
2023-04-15T05:59:54.251Z,99863.91
2023-04-15T06:10:15.698Z,99873.88
2023-04-15T06:20:37.688Z,99866.69
2023-04-15T06:30:59.297Z,99871.53
2023-04-15T06:41:21.160Z,99882.84
2023-04-15T06:51:43.583Z,99890.22
2023-04-15T07:02:05.179Z,99887.94
2023-04-15T07:12:26.820Z,99890.81
2023-04-15T07:22:48.563Z,99888.59
2023-04-15T07:33:10.075Z,99896.78
2023-04-15T07:43:31.615Z,99909.47
2023-04-15T07:53:53.584Z,99911.41
2023-04-15T08:04:15.059Z,99897.56
2023-04-15T08:14:36.934Z,99913.94
2023-04-15T08:24:58.410Z,99918.66
2023-04-15T08:35:20.690Z,99918.66
2023-04-15T08:45:43.087Z,99918.66
2023-04-15T08:56:06.275Z,99914.59
2023-04-15T09:06:27.745Z,99919.44
2023-04-15T09:17:03.443Z,99913.97
2023-04-15T09:27:28.746Z,99913.13
2023-04-15T09:37:50.867Z,99926.19
2023-04-15T09:48:17.080Z,99937.28
2023-04-15T09:58:39.373Z,99926.53
2023-04-15T10:09:01.649Z,99929.03
2023-04-15T10:19:27.217Z,99933.16
2023-04-15T10:29:51.015Z,99956.22
2023-04-15T10:40:35.834Z,99957.94
2023-04-15T10:50:58.436Z,99956.75
2023-04-15T11:01:23.415Z,99953.75
2023-04-15T11:12:10.953Z,99960.28
2023-04-15T11:22:32.765Z,99952.72
2023-04-15T11:32:57.994Z,99946.78
2023-04-15T11:43:23.600Z,99944.00
2023-04-15T11:53:47.280Z,99945.66
2023-04-15T12:04:14.272Z,99941.78
2023-04-15T12:14:36.644Z,99925.91
2023-04-15T12:24:58.195Z,99917.63
2023-04-15T12:35:21.631Z,99898.72
2023-04-15T12:45:43.543Z,99901.81
2023-04-15T12:56:05.323Z,99891.81
2023-04-15T13:06:29.218Z,99903.13
2023-04-15T13:16:50.965Z,99895.56
2023-04-15T13:27:12.629Z,99898.19
2023-04-15T13:37:34.596Z,99911.41
2023-04-15T13:47:57.281Z,99895.47
2023-04-15T13:58:19.115Z,99906.41
2023-04-15T14:08:41.277Z,99908.09
2023-04-15T14:19:03.883Z,99906.25
2023-04-15T14:29:26.260Z,99946.72
2023-04-15T14:39:48.026Z,99943.66
2023-04-15T14:50:10.015Z,99958.97
2023-04-15T15:00:31.668Z,99957.28
2023-04-15T15:10:53.506Z,99953.91
2023-04-15T15:21:15.302Z,99941.34
2023-04-15T15:31:37.039Z,99940.09
2023-04-15T15:41:58.593Z,99944.50
2023-04-15T15:52:20.244Z,99940.41
2023-04-15T16:13:06.959Z,99930.38
2023-04-15T16:23:28.496Z,99960.97
2023-04-15T16:33:50.363Z,99959.69
2023-04-15T16:44:11.579Z,99955.72
2023-04-15T16:54:34.942Z,99976.78
2023-04-15T17:04:56.588Z,100003.66
2023-04-15T17:15:19.484Z,100015.53
2023-04-15T17:25:51.600Z,100069.31
2023-04-15T17:36:13.223Z,100063.53
2023-04-15T17:46:34.613Z,100101.47
2023-04-15T17:56:56.845Z,100073.84
2023-04-15T18:07:18.949Z,100064.59
2023-04-15T18:17:40.984Z,100037.03
2023-04-15T18:28:02.509Z,100035.34
2023-04-15T18:38:24.492Z,100022.09
2023-04-15T18:48:46.482Z,100030.38
2023-04-15T18:59:28.150Z,100058.03
2023-04-15T19:09:50.827Z,100059.69
2023-04-15T19:20:12.273Z,100057.94
2023-04-15T19:30:33.956Z,100051.84
